Time;durP1;ratioP1;P1;durP2;ratioP2;P2;SDS_P1;SDS_P2;PMS_P1;PMS_P2;Temp;Humidity;BMP_temperature;BMP_pressure;BME280_temperature;BME280_humidity;BME280_pressure;Samples;Min_cycle;Max_cycle;Signal;HPM_P1;HPM_P2
2021/06/10 00:02:13;;;;;;;;;;;17.40;99.90;;;;;;5052356;28;20360;-81
2021/06/10 00:04:39;;;;;;;;;;;17.30;99.90;;;;;;5053852;28;20062;-81
2021/06/10 00:07:04;;;;;;;;;;;17.40;99.90;;;;;;5053675;28;20371;-80
2021/06/10 00:09:30;;;;;;;;;;;17.40;99.90;;;;;;5052662;28;19955;-80
2021/06/10 00:11:55;;;;;;;;;;;17.40;99.90;;;;;;5053619;28;19905;-80
2021/06/10 00:14:21;;;;;;;;;;;17.30;99.90;;;;;;5052279;28;19999;-81
2021/06/10 00:16:46;;;;;;;;;;;17.30;99.90;;;;;;5052214;28;19905;-81
2021/06/10 00:19:13;;;;;;;;;;;17.30;99.90;;;;;;5051944;28;19930;-80
2021/06/10 00:21:39;;;;;;;;;;;17.20;99.90;;;;;;5052014;28;19905;-80
2021/06/10 00:24:05;;;;;;;;;;;17.20;99.90;;;;;;5052020;28;20005;-81
2021/06/10 00:26:30;;;;;;;;;;;17.20;99.90;;;;;;5052087;28;19954;-81
2021/06/10 00:28:56;;;;;;;;;;;17.20;99.90;;;;;;5051845;28;19951;-80
2021/06/10 00:31:21;;;;;;;;;;;17.10;99.90;;;;;;5052294;28;19905;-80
2021/06/10 00:33:47;;;;;;;;;;;17.10;99.90;;;;;;5051600;28;20326;-81
2021/06/10 00:36:12;;;;;;;;;;;17.20;99.90;;;;;;5051713;28;19909;-79
2021/06/10 00:38:38;;;;;;;;;;;17.10;99.90;;;;;;5051559;28;19905;-82
2021/06/10 00:41:03;;;;;;;;;;;17.10;99.90;;;;;;5051748;28;20375;-81
2021/06/10 00:43:29;;;;;;;;;;;17.10;99.90;;;;;;5051597;28;20362;-81
2021/06/10 00:45:54;;;;;;;;;;;17.00;99.90;;;;;;5051728;28;20418;-80
2021/06/10 00:48:20;;;;;;;;;;;17.10;99.90;;;;;;5053350;28;20048;-81
2021/06/10 00:50:46;;;;;;;;;;;17.00;99.90;;;;;;5051611;28;19928;-81
2021/06/10 00:53:32;;;;;;;;;;;17.00;99.90;;;;;;5052623;28;19944;-80
2021/06/10 00:55:58;;;;;;;;;;;16.90;99.90;;;;;;5052656;28;20368;-80
2021/06/10 00:58:24;;;;;;;;;;;16.90;99.90;;;;;;5051479;28;20002;-81
2021/06/10 01:00:50;;;;;;;;;;;16.90;99.90;;;;;;5053298;28;20466;-81
2021/06/10 01:03:16;;;;;;;;;;;16.90;99.90;;;;;;5051638;28;19909;-81
2021/06/10 01:05:43;;;;;;;;;;;16.90;99.90;;;;;;5051457;28;19912;-79
2021/06/10 01:08:14;;;;;;;;;;;16.90;99.90;;;;;;5051411;28;19919;-81
2021/06/10 01:10:56;;;;;;;;;;;16.80;99.90;;;;;;5051427;28;19904;-81
2021/06/10 01:13:43;;;;;;;;;;;16.80;99.90;;;;;;5051568;28;19999;-80
2021/06/10 01:16:11;;;;;;;;;;;16.80;99.90;;;;;;5051168;28;19905;-81
2021/06/10 01:18:38;;;;;;;;;;;16.80;99.90;;;;;;5051667;28;19905;-82
2021/06/10 01:21:03;;;;;;;;;;;16.80;99.90;;;;;;5055442;28;20386;-81
2021/06/10 01:23:48;;;;;;;;;;;16.80;99.90;;;;;;5055677;28;19906;-81
2021/06/10 01:26:16;;;;;;;;;;;16.80;99.90;;;;;;5055440;28;19911;-80
2021/06/10 01:28:43;;;;;;;;;;;16.80;99.90;;;;;;5055208;28;19904;-81
2021/06/10 01:31:09;;;;;;;;;;;16.80;99.90;;;;;;5055491;28;19911;-81
2021/06/10 01:33:37;;;;;;;;;;;16.70;99.90;;;;;;5055119;28;19954;-80
2021/06/10 01:36:03;;;;;;;;;;;16.70;99.90;;;;;;5055091;28;20376;-80
2021/06/10 01:38:30;;;;;;;;;;;16.60;99.90;;;;;;5055202;28;19909;-82
2021/06/10 01:40:56;;;;;;;;;;;16.60;99.90;;;;;;5055123;28;19909;-80
2021/06/10 01:43:23;;;;;;;;;;;16.50;99.90;;;;;;5055284;28;19954;-81
2021/06/10 01:45:49;;;;;;;;;;;16.50;99.90;;;;;;5056625;28;19908;-80
2021/06/10 01:48:19;;;;;;;;;;;16.50;99.90;;;;;;5055197;28;19916;-79
2021/06/10 01:50:47;;;;;;;;;;;16.50;99.90;;;;;;5055013;28;20425;-81
2021/06/10 01:53:14;;;;;;;;;;;16.40;99.90;;;;;;5055237;28;19908;-80
2021/06/10 01:55:40;;;;;;;;;;;16.50;99.90;;;;;;5055057;28;19954;-80
2021/06/10 01:58:06;;;;;;;;;;;16.40;99.90;;;;;;5055064;28;20398;-80
2021/06/10 02:00:31;;;;;;;;;;;16.40;99.90;;;;;;5054581;28;19909;-81
2021/06/10 02:02:58;;;;;;;;;;;16.40;99.90;;;;;;5054893;28;20253;-80
2021/06/10 02:05:24;;;;;;;;;;;16.40;99.90;;;;;;5054986;28;19911;-81
2021/06/10 02:07:49;;;;;;;;;;;16.40;99.90;;;;;;5055332;28;19904;-81
2021/06/10 02:10:18;;;;;;;;;;;16.40;99.90;;;;;;5056532;28;19909;-79
2021/06/10 02:12:43;;;;;;;;;;;16.30;99.90;;;;;;5058355;28;19905;-79
2021/06/10 02:15:09;;;;;;;;;;;16.30;99.90;;;;;;5055769;28;19905;-80
2021/06/10 02:17:35;;;;;;;;;;;16.30;99.90;;;;;;5055976;28;19908;-79
2021/06/10 02:20:02;;;;;;;;;;;16.20;99.90;;;;;;5055556;28;19909;-79
2021/06/10 02:22:28;;;;;;;;;;;16.20;99.90;;;;;;5057636;28;20438;-79
2021/06/10 02:24:54;;;;;;;;;;;16.20;99.90;;;;;;5055851;28;19944;-79
2021/06/10 02:27:19;;;;;;;;;;;16.20;99.90;;;;;;5056261;28;19904;-79
2021/06/10 02:29:45;;;;;;;;;;;16.20;99.90;;;;;;5055171;28;19909;-79
2021/06/10 02:32:11;;;;;;;;;;;16.20;99.90;;;;;;5056362;28;20362;-79
2021/06/10 02:34:36;;;;;;;;;;;16.10;99.90;;;;;;5056009;28;19920;-79
2021/06/10 02:37:03;;;;;;;;;;;16.10;99.90;;;;;;5055773;28;19912;-80
2021/06/10 02:39:29;;;;;;;;;;;16.20;99.90;;;;;;5055390;28;19908;-79
2021/06/10 02:41:56;;;;;;;;;;;16.20;99.90;;;;;;5055968;28;19905;-79
2021/06/10 02:44:24;;;;;;;;;;;16.20;99.90;;;;;;5056133;28;20352;-79
2021/06/10 02:46:50;;;;;;;;;;;16.20;99.90;;;;;;5056011;28;19974;-79
2021/06/10 02:49:17;;;;;;;;;;;16.10;99.90;;;;;;5055508;28;20363;-80
2021/06/10 02:51:42;;;;;;;;;;;16.10;99.90;;;;;;5055595;28;19905;-79
2021/06/10 02:54:11;;;;;;;;;;;16.10;99.90;;;;;;5055794;28;20004;-79
2021/06/10 02:56:37;;;;;;;;;;;16.10;99.90;;;;;;5057459;28;20011;-80
2021/06/10 02:59:03;;;;;;;;;;;16.10;99.90;;;;;;5055423;28;19962;-81
2021/06/10 03:01:34;;;;;;;;;;;16.10;99.90;;;;;;5055625;28;19906;-79
2021/06/10 03:04:00;;;;;;;;;;;16.00;99.90;;;;;;5054783;28;19954;-80
2021/06/10 03:06:25;;;;;;;;;;;16.00;99.90;;;;;;5053974;28;19920;-81
2021/06/10 03:08:51;;;;;;;;;;;16.00;99.90;;;;;;5053965;28;19912;-80
2021/06/10 03:11:17;;;;;;;;;;;16.00;99.90;;;;;;5055314;28;20374;-80
2021/06/10 03:13:43;;;;;;;;;;;16.00;99.90;;;;;;5053810;28;20323;-81
2021/06/10 03:16:09;;;;;;;;;;;16.00;99.90;;;;;;5054999;28;19959;-80
2021/06/10 03:18:35;;;;;;;;;;;15.90;99.90;;;;;;5054115;28;20283;-82
2021/06/10 03:21:01;;;;;;;;;;;16.00;99.90;;;;;;5053626;28;20003;-80
2021/06/10 03:23:27;;;;;;;;;;;15.90;99.90;;;;;;5053878;28;19909;-80
2021/06/10 03:25:53;;;;;;;;;;;16.00;99.90;;;;;;5053548;28;19969;-80
2021/06/10 03:28:20;;;;;;;;;;;15.90;99.90;;;;;;5053408;28;19908;-81
2021/06/10 03:30:45;;;;;;;;;;;16.00;99.90;;;;;;5052962;28;20012;-81
2021/06/10 03:33:11;;;;;;;;;;;16.00;99.90;;;;;;5053150;28;20002;-80
2021/06/10 03:35:37;;;;;;;;;;;16.00;99.90;;;;;;5053674;28;19911;-81
2021/06/10 03:38:04;;;;;;;;;;;16.00;99.90;;;;;;5055052;28;20016;-80
2021/06/10 03:40:30;;;;;;;;;;;16.00;99.90;;;;;;5069344;28;19915;-80
2021/06/10 03:42:55;;;;;;;;;;;16.00;99.90;;;;;;5055181;28;19909;-81
2021/06/10 03:45:21;;;;;;;;;;;16.10;99.90;;;;;;5067940;28;19915;-82
2021/06/10 03:47:47;;;;;;;;;;;16.10;99.90;;;;;;5073420;28;19912;-82
2021/06/10 03:50:12;;;;;;;;;;;16.10;99.90;;;;;;5072992;28;20310;-82
2021/06/10 03:52:38;;;;;;;;;;;16.10;99.90;;;;;;5073189;28;19904;-80
2021/06/10 03:55:06;;;;;;;;;;;16.10;99.90;;;;;;5073339;28;19908;-82
2021/06/10 03:57:32;;;;;;;;;;;16.20;99.90;;;;;;5074205;28;19911;-81
2021/06/10 03:59:58;;;;;;;;;;;16.20;99.90;;;;;;5074269;28;19908;-81
2021/06/10 04:02:24;;;;;;;;;;;16.30;99.90;;;;;;5072807;28;20379;-82
2021/06/10 04:04:49;;;;;;;;;;;16.40;99.90;;;;;;5073216;28;19993;-80
2021/06/10 04:07:15;;;;;;;;;;;16.60;99.90;;;;;;5072806;28;20053;-81
2021/06/10 04:09:41;;;;;;;;;;;16.60;99.90;;;;;;5073036;28;19986;-80
2021/06/10 04:12:07;;;;;;;;;;;16.70;99.90;;;;;;5072554;28;20314;-81
2021/06/10 04:14:32;;;;;;;;;;;16.80;99.90;;;;;;5071765;28;19904;-80
2021/06/10 04:16:58;;;;;;;;;;;16.90;99.90;;;;;;5072087;28;19904;-80
2021/06/10 04:19:23;;;;;;;;;;;17.10;99.90;;;;;;5072698;28;19943;-81
2021/06/10 04:21:48;;;;;;;14.85;10.75;;;17.20;99.90;;;;;;5072220;28;19904;-80
2021/06/10 04:24:14;;;;;;;14.32;10.88;;;17.40;99.90;;;;;;5071905;28;19954;-79
2021/06/10 04:26:40;;;;;;;;;;;17.60;99.90;;;;;;5072360;28;20024;-80
2021/06/10 04:29:05;;;;;;;;;;;17.80;99.90;;;;;;5073270;28;19995;-81
2021/06/10 04:31:30;;;;;;;18.30;10.95;;;18.00;99.90;;;;;;5072579;28;20352;-81
2021/06/10 04:33:56;;;;;;;17.20;11.15;;;18.20;99.90;;;;;;5072284;28;20050;-79
2021/06/10 04:36:22;;;;;;;16.83;11.60;;;18.30;99.90;;;;;;5072176;28;20532;-82
2021/06/10 04:38:49;;;;;;;18.95;11.45;;;18.70;99.90;;;;;;5073771;28;20503;-81
2021/06/10 04:41:15;;;;;;;16.48;11.43;;;19.10;99.90;;;;;;5072200;28;20042;-81
2021/06/10 04:43:41;;;;;;;14.38;9.98;;;19.30;99.90;;;;;;5072223;28;20478;-80
2021/06/10 04:46:07;;;;;;;16.17;10.80;;;19.40;99.90;;;;;;5072222;28;20475;-81
2021/06/10 04:48:33;;;;;;;;;;;20.10;99.90;;;;;;5073382;28;20131;-80
2021/06/10 04:50:58;;;;;;;;;;;21.70;99.90;;;;;;5072186;28;19947;-81
2021/06/10 04:53:24;;;;;;;14.30;9.85;;;22.40;99.90;;;;;;5070669;28;24097;-81
2021/06/10 04:55:50;;;;;;;13.15;10.43;;;22.10;99.90;;;;;;5064717;28;20036;-82
2021/06/10 04:58:16;;;;;;;14.02;9.98;;;22.00;99.90;;;;;;5074511;28;20037;-81
2021/06/10 05:00:42;;;;;;;13.40;9.43;;;22.00;99.90;;;;;;5074547;28;20539;-81
2021/06/10 05:03:08;;;;;;;14.57;10.55;;;21.50;99.90;;;;;;5075784;28;20063;-82
2021/06/10 05:05:35;;;;;;;15.30;11.07;;;21.30;99.90;;;;;;5074801;28;20472;-80
2021/06/10 05:08:01;;;;;;;13.55;10.23;;;21.10;99.90;;;;;;5064414;28;20102;-82
2021/06/10 05:10:27;;;;;;;16.27;10.37;;;20.90;99.90;;;;;;5055959;28;20029;-83
2021/06/10 05:12:53;;;;;;;14.85;10.77;;;20.60;99.90;;;;;;5055024;28;20603;-82
2021/06/10 05:15:19;;;;;;;17.67;10.82;;;20.80;99.90;;;;;;5055114;28;20032;-81
2021/06/10 05:17:45;;;;;;;14.93;10.98;;;21.40;99.90;;;;;;5055124;28;20029;-82
2021/06/10 05:20:11;;;;;;;12.03;9.37;;;21.40;99.90;;;;;;5054632;28;20369;-82
2021/06/10 05:22:37;;;;;;;15.17;9.97;;;21.20;99.90;;;;;;5053565;28;20025;-81
2021/06/10 05:25:04;;;;;;;12.53;9.40;;;21.10;99.90;;;;;;5066863;28;20024;-80
2021/06/10 05:27:29;;;;;;;17.30;10.82;;;21.00;99.90;;;;;;5073450;28;20021;-81
2021/06/10 05:29:55;;;;;;;15.25;11.02;;;21.50;99.90;;;;;;5073046;28;20248;-81
2021/06/10 05:32:21;;;;;;;14.30;10.85;;;22.30;99.90;;;;;;5072734;28;19954;-83
2021/06/10 05:34:47;;;;;;;16.88;10.85;;;23.10;99.90;;;;;;5074332;28;20025;-83
2021/06/10 05:37:12;;;;;;;15.25;9.95;;;25.00;99.90;;;;;;5073685;28;19917;-79
2021/06/10 05:39:38;;;;;;;13.00;9.63;;;26.30;99.90;;;;;;5075650;28;19917;-79
2021/06/10 05:42:04;;;;;;;14.23;9.40;;;26.10;99.90;;;;;;5075500;28;19905;-81
2021/06/10 05:44:29;;;;;;;12.75;9.27;;;26.10;99.90;;;;;;5068336;28;20021;-81
2021/06/10 05:46:55;;;;;;;13.10;10.07;;;26.60;99.90;;;;;;5070654;28;20395;-79
2021/06/10 05:49:21;;;;;;;13.80;9.20;;;27.20;99.90;;;;;;5057787;28;20356;-79
2021/06/10 05:51:46;;;;;;;11.30;8.50;;;28.20;99.90;;;;;;5050494;28;20344;-79
2021/06/10 05:54:12;;;;;;;;;;;28.60;99.90;;;;;;5051045;28;19966;-80
2021/06/10 05:56:37;;;;;;;13.20;9.33;;;29.30;99.90;;;;;;5050790;28;20352;-79
2021/06/10 05:59:04;;;;;;;11.37;9.40;;;29.30;99.90;;;;;;5050448;28;19943;-80
2021/06/10 06:01:29;;;;;;;15.32;8.90;;;30.30;99.90;;;;;;5050449;28;20047;-79
2021/06/10 06:03:55;;;;;;;11.13;9.40;;;30.20;99.90;;;;;;5050322;28;19908;-79
2021/06/10 06:06:21;;;;;;;10.80;9.20;;;29.30;99.90;;;;;;5053584;28;19905;-80
2021/06/10 06:08:47;;;;;;;10.53;9.00;;;29.40;99.90;;;;;;5054026;28;20406;-79
2021/06/10 06:11:13;;;;;;;;;;;30.10;99.90;;;;;;5056331;28;19974;-79
2021/06/10 06:13:54;;;;;;;;;;;31.10;99.90;;;;;;5057230;28;20359;-79
2021/06/10 06:16:20;;;;;;;;;;;31.00;99.90;;;;;;5062397;28;20283;-80
2021/06/10 06:18:47;;;;;;;;;;;31.50;99.90;;;;;;5056072;28;24084;-78
2021/06/10 06:21:13;;;;;;;;;;;32.20;99.90;;;;;;5055283;28;20023;-80
2021/06/10 06:23:41;;;;;;;;;;;32.20;99.90;;;;;;5054266;28;20058;-80
2021/06/10 06:26:09;;;;;;;;;;;31.90;98.60;;;;;;5054291;28;19905;-81
2021/06/10 06:28:34;;;;;;;12.90;10.80;;;32.30;98.10;;;;;;5055239;28;19911;-80
2021/06/10 06:31:00;;;;;;;;;;;32.00;97.50;;;;;;5055614;28;19905;-79
2021/06/10 06:33:25;;;;;;;;;;;32.00;96.10;;;;;;5070105;28;20287;-80
2021/06/10 06:35:50;;;;;;;;;;;31.70;97.60;;;;;;5074124;28;20034;-81
2021/06/10 06:38:16;;;;;;;;;;;31.20;96.30;;;;;;5073894;28;19993;-81
2021/06/10 06:40:42;;;;;;;;;;;31.90;98.90;;;;;;5074020;28;19908;-80
2021/06/10 06:43:09;;;;;;;;;;;32.90;97.20;;;;;;5074269;28;19926;-79
2021/06/10 06:45:34;;;;;;;;;;;33.70;95.30;;;;;;5073951;28;19935;-79
2021/06/10 06:48:00;;;;;;;;;;;34.00;93.60;;;;;;5073801;28;19904;-80
2021/06/10 06:50:26;;;;;;;;;;;33.00;94.10;;;;;;5073749;28;19916;-79
2021/06/10 06:52:51;;;;;;;;;;;32.80;94.70;;;;;;5075172;28;20036;-79
2021/06/10 06:55:17;;;;;;;;;;;33.70;94.50;;;;;;5073805;28;19982;-79
2021/06/10 06:57:42;;;;;;;13.60;11.85;;;32.90;93.70;;;;;;5073861;28;19909;-78
2021/06/10 07:00:08;;;;;;;;;;;33.20;93.10;;;;;;5070133;28;20003;-78
2021/06/10 07:02:34;;;;;;;;;;;33.60;93.40;;;;;;5062926;28;20038;-78
2021/06/10 07:04:59;;;;;;;;;;;32.50;92.20;;;;;;5062910;28;20439;-77
2021/06/10 07:07:25;;;;;;;;;;;30.80;93.30;;;;;;5063920;28;20030;-78
2021/06/10 07:09:50;;;;;;;;;;;30.10;97.00;;;;;;5066650;28;20381;-79
2021/06/10 07:12:16;;;;;;;;;;;29.00;98.80;;;;;;5063340;28;20050;-80
2021/06/10 07:14:42;;;;;;;;;;;28.30;99.60;;;;;;5063722;28;19904;-81
2021/06/10 07:17:07;;;;;;;;;;;28.40;99.90;;;;;;5061599;28;19919;-79
2021/06/10 07:19:33;;;;;;;;;;;28.60;99.90;;;;;;5061926;28;24066;-78
2021/06/10 07:21:58;;;;;;;;;;;28.10;99.90;;;;;;5063532;28;25146;-78
2021/06/10 07:24:24;;;;;;;;;;;27.60;99.90;;;;;;5060920;28;19904;-79
2021/06/10 07:26:49;;;;;;;18.17;10.60;;;26.70;99.90;;;;;;5061760;28;19944;-79
2021/06/10 07:29:17;;;;;;;15.30;10.55;;;26.00;99.90;;;;;;5063079;28;20029;-79
2021/06/10 07:31:43;;;;;;;;;;;26.40;99.90;;;;;;5064222;28;20116;-82
2021/06/10 07:34:09;;;;;;;;;;;27.30;99.90;;;;;;5064474;28;19966;-78
2021/06/10 07:36:35;;;;;;;;;;;28.40;99.90;;;;;;5061347;28;24146;-79
2021/06/10 07:39:01;;;;;;;;;;;28.90;99.90;;;;;;5060237;28;20264;-81
2021/06/10 07:41:27;;;;;;;;;;;29.10;99.90;;;;;;5062070;28;24126;-79
2021/06/10 07:43:52;;;;;;;;;;;29.10;99.90;;;;;;5062850;28;19912;-79
2021/06/10 07:46:18;;;;;;;;;;;28.60;99.90;;;;;;5063413;28;19905;-78
2021/06/10 07:48:43;;;;;;;;;;;27.70;99.90;;;;;;5065174;28;19931;-79
2021/06/10 07:51:09;;;;;;;;;;;27.00;99.90;;;;;;5071413;28;19904;-78
2021/06/10 07:53:34;;;;;;;;;;;27.00;99.90;;;;;;5070935;28;24065;-79
2021/06/10 07:56:00;;;;;;;;;;;26.70;99.90;;;;;;5072590;28;20267;-79
2021/06/10 07:58:26;;;;;;;;;;;26.60;99.90;;;;;;5070302;28;19997;-78
2021/06/10 08:00:52;;;;;;;;;;;27.80;99.90;;;;;;5072209;28;24063;-80
2021/06/10 08:03:18;;;;;;;;;;;28.60;99.90;;;;;;5056139;28;24094;-79
2021/06/10 08:05:43;;;;;;;;;;;28.70;99.90;;;;;;5052109;28;19955;-80
2021/06/10 08:08:08;;;;;;;;;;;29.40;99.90;;;;;;5050667;28;19905;-79
2021/06/10 08:10:34;;;;;;;;;;;29.50;99.90;;;;;;5050190;28;24122;-78
2021/06/10 08:13:02;;;;;;;;;;;30.40;99.90;;;;;;5050783;28;19988;-79
2021/06/10 08:15:28;;;;;;;;;;;31.20;99.90;;;;;;5050737;28;19912;-79
2021/06/10 08:17:53;;;;;;;;;;;31.80;99.90;;;;;;5050532;28;20469;-78
2021/06/10 08:20:19;;;;;;;;;;;31.80;99.80;;;;;;5051594;28;20032;-79
2021/06/10 08:22:44;;;;;;;;;;;31.00;99.90;;;;;;5050951;28;20513;-78
2021/06/10 08:25:10;;;;;;;;;;;30.90;99.90;;;;;;5050144;28;25124;-79
2021/06/10 08:27:36;;;;;;;;;;;30.40;99.90;;;;;;5050236;28;20091;-79
2021/06/10 08:30:03;;;;;;;;;;;29.60;99.90;;;;;;5050440;28;19905;-79
2021/06/10 08:32:28;;;;;;;;;;;29.40;99.90;;;;;;5050432;28;20467;-79
2021/06/10 08:34:54;;;;;;;;;;;29.60;99.90;;;;;;5050164;28;20003;-78
2021/06/10 08:37:19;;;;;;;;;;;29.70;99.90;;;;;;5050240;28;20375;-79
2021/06/10 08:39:44;;;;;;;;;;;30.10;99.90;;;;;;5064080;28;20359;-79
2021/06/10 08:42:10;;;;;;;;;;;30.10;99.90;;;;;;5072242;28;20054;-79
2021/06/10 08:44:36;;;;;;;;;;;30.60;99.90;;;;;;5072861;28;20491;-81
2021/06/10 08:47:03;;;;;;;13.45;10.75;;;32.80;99.90;;;;;;5062748;28;20021;-79
2021/06/10 08:49:30;;;;;;;12.65;10.65;;;33.90;96.50;;;;;;5056330;28;19911;-79
2021/06/10 08:51:56;;;;;;;19.38;9.82;;;34.50;94.70;;;;;;5051632;28;19904;-79
2021/06/10 08:54:21;;;;;;;10.25;9.15;;;34.00;95.60;;;;;;5049869;28;20028;-79
2021/06/10 08:56:47;;;;;;;10.73;9.33;;;34.40;95.20;;;;;;5050530;28;20310;-79
2021/06/10 08:59:12;;;;;;;9.47;8.47;;;34.80;95.30;;;;;;5050098;28;20024;-78
2021/06/10 09:01:38;;;;;;;10.35;9.25;;;35.30;93.10;;;;;;5049693;28;20775;-79
2021/06/10 09:04:04;;;;;;;;;;;35.20;93.10;;;;;;5053557;28;19912;-81
2021/06/10 09:06:50;;;;;;;13.15;9.95;;;34.60;93.20;;;;;;5051119;28;24090;-80
2021/06/10 09:09:21;;;;;;;10.73;9.48;;;34.10;93.60;;;;;;5050133;28;20119;-79
2021/06/10 09:11:47;;;;;;;10.63;9.52;;;33.30;93.40;;;;;;5050105;28;20329;-80
2021/06/10 09:14:13;;;;;;;;;;;33.30;94.40;;;;;;5053196;28;20032;-81
2021/06/10 09:16:39;;;;;;;10.48;9.38;;;33.20;94.40;;;;;;5050197;28;19905;-82
2021/06/10 09:19:08;;;;;;;10.18;7.88;;;33.30;94.20;;;;;;5051764;28;20070;-80
2021/06/10 09:21:37;;;;;;;;;;;33.10;93.40;;;;;;5050232;28;20017;-81
2021/06/10 09:24:25;;;;;;;7.85;6.13;;;33.40;91.70;;;;;;5051833;28;19904;-80
2021/06/10 09:27:08;;;;;;;8.25;6.22;;;34.10;90.90;;;;;;5051568;28;20021;-77
2021/06/10 09:29:46;;;;;;;7.45;6.65;;;34.50;91.20;;;;;;5050665;28;20033;-79
2021/06/10 09:32:23;;;;;;;9.45;7.10;;;34.60;87.90;;;;;;5066172;28;20020;-79
2021/06/10 09:34:49;;;;;;;6.53;5.93;;;34.90;84.70;;;;;;5072165;28;20484;-79
2021/06/10 09:37:32;;;;;;;8.18;6.78;;;35.50;86.30;;;;;;5072390;28;20039;-78
2021/06/10 09:39:58;;;;;;;;;;;36.20;84.40;;;;;;5070523;28;20385;-77
2021/06/10 09:42:24;;;;;;;;;;;36.10;85.00;;;;;;5073833;28;20042;-81
2021/06/10 09:45:11;;;;;;;;;;;36.40;85.60;;;;;;5075429;28;20352;-81
2021/06/10 09:47:37;;;;;;;;;;;36.60;78.70;;;;;;5074451;28;24076;-80
2021/06/10 09:50:11;;;;;;;;;;;36.00;80.00;;;;;;5074613;28;19904;-82
2021/06/10 09:52:43;;;;;;;;;;;35.80;77.70;;;;;;5074752;28;20022;-81
2021/06/10 09:55:09;;;;;;;;;;;35.80;76.50;;;;;;5075847;28;19911;-79
2021/06/10 09:57:34;;;;;;;;;;;34.10;78.50;;;;;;5074184;28;19904;-79
2021/06/10 10:00:00;;;;;;;;;;;32.90;80.80;;;;;;5074394;28;25112;-80
2021/06/10 10:02:27;;;;;;;11.05;8.52;;;33.70;82.90;;;;;;5082740;28;20052;-81
2021/06/10 10:05:11;;;;;;;9.57;8.50;;;34.50;85.20;;;;;;5075842;28;20031;-80
2021/06/10 10:07:37;;;;;;;11.07;9.80;;;34.50;77.60;;;;;;5065917;28;20059;-80
2021/06/10 10:10:09;;;;;;;10.93;9.00;;;34.40;78.50;;;;;;5064743;28;20017;-79
2021/06/10 10:12:40;;;;;;;9.63;8.43;;;34.60;78.30;;;;;;5065933;28;20028;-79
2021/06/10 10:15:06;;;;;;;13.07;10.05;;;35.10;79.60;;;;;;5065016;28;20048;-81
2021/06/10 10:17:32;;;;;;;;;;;34.80;80.10;;;;;;5064436;28;20017;-79
2021/06/10 10:19:57;;;;;;;10.10;8.75;;;34.60;78.00;;;;;;5068711;28;19908;-80
2021/06/10 10:22:26;;;;;;;10.25;8.32;;;34.30;83.20;;;;;;5082795;28;20475;-79
2021/06/10 10:24:55;;;;;;;8.48;7.30;;;35.20;79.80;;;;;;5075111;28;20024;-79
2021/06/10 10:27:23;;;;;;;6.70;5.95;;;35.40;75.80;;;;;;5074257;28;20387;-81
2021/06/10 10:29:48;;;;;;;;;;;35.70;78.20;;;;;;5075214;28;20035;-80
2021/06/10 10:32:15;;;;;;;;;;;34.10;74.30;;;;;;5072193;28;19908;-79
2021/06/10 10:34:41;;;;;;;;;;;33.70;77.20;;;;;;5063240;28;19905;-81
2021/06/10 10:37:15;;;;;;;;;;;34.70;79.00;;;;;;5063598;28;19977;-80
2021/06/10 10:39:41;;;;;;;9.65;7.75;;;35.30;78.40;;;;;;5062956;28;19958;-80
2021/06/10 10:42:07;;;;;;;;;;;35.00;75.50;;;;;;5062741;28;24067;-81
2021/06/10 10:44:34;;;;;;;;;;;34.70;73.20;;;;;;5063317;28;19909;-81
2021/06/10 10:46:59;;;;;;;;;;;35.00;79.70;;;;;;5062953;28;19905;-79
2021/06/10 10:49:26;;;;;;;;;;;35.00;77.60;;;;;;5063700;28;20044;-81
2021/06/10 10:51:52;;;;;;;9.38;7.35;;;34.60;77.40;;;;;;5063949;28;24115;-80
2021/06/10 10:54:31;;;;;;;;;;;35.40;76.30;;;;;;5064343;28;20104;-80
2021/06/10 10:56:57;;;;;;;;;;;35.40;75.30;;;;;;5063569;28;19912;-81
2021/06/10 10:59:23;;;;;;;;;;;35.60;73.80;;;;;;5069099;28;19916;-80
2021/06/10 11:02:06;;;;;;;11.57;7.80;;;35.20;74.40;;;;;;5060120;28;19915;-80
2021/06/10 11:05:04;;;;;;;10.45;9.32;;;33.90;72.70;;;;;;5066063;28;20500;-78
2021/06/10 11:07:33;;;;;;;10.30;9.15;;;32.50;79.20;;;;;;5075794;28;20017;-81
2021/06/10 11:09:59;;;;;;;10.07;8.43;;;32.90;73.50;;;;;;5058798;28;20075;-80
2021/06/10 11:12:43;;;;;;;13.68;8.02;;;33.50;82.10;;;;;;5054632;28;20139;-78
2021/06/10 11:15:37;;;;;;;9.68;8.20;;;33.70;80.20;;;;;;5055501;28;20033;-78
2021/06/10 11:18:06;;;;;;;10.50;8.90;;;33.00;79.10;;;;;;5063613;28;20524;-79
2021/06/10 11:20:38;;;;;;;;;;;32.70;83.30;;;;;;5072744;28;20261;-79
2021/06/10 11:23:13;;;;;;;;;;;32.10;82.30;;;;;;5066869;28;20038;-80
2021/06/10 11:25:40;;;;;;;;;;;31.30;82.50;;;;;;5072410;28;20425;-80
2021/06/10 11:28:07;;;;;;;;;;;30.80;87.00;;;;;;5068879;28;19908;-79
2021/06/10 11:30:32;;;;;;;;;;;30.40;86.40;;;;;;5054206;28;20007;-81
2021/06/10 11:33:29;;;;;;;;;;;29.90;86.30;;;;;;5054068;28;19952;-81
2021/06/10 11:36:01;;;;;;;;;;;29.60;90.30;;;;;;5045706;28;19908;-79
2021/06/10 11:38:27;;;;;;;;;;;28.90;90.20;;;;;;5054816;28;19913;-80
2021/06/10 11:41:00;;;;;;;;;;;28.30;90.30;;;;;;5056298;28;19909;-80
2021/06/10 11:43:26;;;;;;;;;;;27.80;88.80;;;;;;5054971;28;19908;-80
2021/06/10 11:46:08;;;;;;;11.30;9.13;;;27.30;93.20;;;;;;5055238;28;19958;-81
2021/06/10 11:48:44;;;;;;;12.15;8.85;;;27.20;94.00;;;;;;5053692;28;20489;-80
2021/06/10 11:51:19;;;;;;;;;;;27.00;92.80;;;;;;5055553;28;20027;-79
2021/06/10 11:53:44;;;;;;;;;;;26.90;93.60;;;;;;5054798;28;19904;-79
2021/06/10 11:56:10;;;;;;;;;;;26.80;96.80;;;;;;5053967;28;19912;-80
2021/06/10 11:58:35;;;;;;;;;;;26.50;96.10;;;;;;5053568;28;19908;-80
2021/06/10 12:01:09;;;;;;;;;;;26.40;94.20;;;;;;5055850;28;19908;-81
2021/06/10 12:03:35;;;;;;;;;;;26.50;96.30;;;;;;5053643;28;20279;-81
2021/06/10 12:06:01;;;;;;;;;;;26.80;98.80;;;;;;5053999;28;19911;-82
2021/06/10 12:08:27;;;;;;;;;;;27.10;97.40;;;;;;5053702;28;20043;-81
2021/06/10 12:11:00;;;;;;;;;;;27.50;95.00;;;;;;5054015;28;20038;-80
2021/06/10 12:13:31;;;;;;;;;;;28.70;92.60;;;;;;5054970;28;19916;-81
2021/06/10 12:15:59;;;;;;;;;;;30.00;91.60;;;;;;5055478;28;20278;-79
2021/06/10 12:18:25;;;;;;;;;;;30.60;84.50;;;;;;5053303;28;19958;-82
2021/06/10 12:20:51;;;;;;;;;;;30.10;87.30;;;;;;5055353;28;19909;-80
2021/06/10 12:23:18;;;;;;;;;;;30.30;85.70;;;;;;5054467;28;20321;-83
2021/06/10 12:25:54;;;;;;;;;;;30.30;86.80;;;;;;5053992;28;20352;-81
2021/06/10 12:28:27;;;;;;;;;;;29.60;89.20;;;;;;5053250;28;19908;-80
2021/06/10 12:31:02;;;;;;;;;;;29.00;89.30;;;;;;5053967;28;19927;-80
2021/06/10 12:33:28;;;;;;;;;;;28.80;89.20;;;;;;5054450;28;19995;-81
2021/06/10 12:35:57;;;;;;;;;;;28.20;87.10;;;;;;5053267;28;19947;-80
2021/06/10 12:38:27;;;;;;;;;;;28.10;86.40;;;;;;5052999;28;20003;-80
2021/06/10 12:40:52;;;;;;;;;;;27.90;85.60;;;;;;5053671;28;19915;-81
2021/06/10 12:43:21;;;;;;;9.13;7.63;;;27.60;93.80;;;;;;5053805;28;19995;-80
2021/06/10 12:45:47;;;;;;;8.65;6.55;;;27.30;94.00;;;;;;5054509;28;20454;-81
2021/06/10 12:48:25;;;;;;;5.80;5.25;;;27.70;97.30;;;;;;5054015;28;20033;-81
2021/06/10 12:51:10;;;;;;;10.13;5.50;;;28.50;95.90;;;;;;5055513;28;20037;-80
2021/06/10 12:53:36;;;;;;;7.10;6.25;;;29.20;94.00;;;;;;5055205;28;20029;-79
2021/06/10 12:56:34;;;;;;;6.63;5.83;;;29.50;92.30;;;;;;5054172;28;20051;-81
2021/06/10 12:59:00;;;;;;;7.50;5.88;;;28.90;94.80;;;;;;5053700;28;20397;-79
2021/06/10 13:01:26;;;;;;;6.17;5.57;;;28.30;94.90;;;;;;5055437;28;20053;-80
2021/06/10 13:03:52;;;;;;;6.70;5.97;;;28.40;97.30;;;;;;5053925;28;20023;-80
2021/06/10 13:06:25;;;;;;;7.22;5.97;;;28.30;96.90;;;;;;5054667;28;20282;-80
2021/06/10 13:08:51;;;;;;;6.43;5.78;;;28.80;97.50;;;;;;5054423;28;20036;-79
2021/06/10 13:11:18;;;;;;;5.57;4.90;;;29.50;96.10;;;;;;5054131;28;20037;-80
2021/06/10 13:13:44;;;;;;;5.53;5.03;;;29.70;91.30;;;;;;5055256;28;20063;-80
2021/06/10 13:16:14;;;;;;;;;;;29.10;93.90;;;;;;5053830;28;20123;-79
2021/06/10 13:18:39;;;;;;;;;;;28.30;98.90;;;;;;5055582;28;19970;-81
2021/06/10 13:21:17;;;;;;;;;;;28.40;90.80;;;;;;5054879;28;20296;-79
2021/06/10 13:23:46;;;;;;;;;;;29.10;92.40;;;;;;5053960;28;19904;-79
2021/06/10 13:26:21;;;;;;;;;;;29.90;90.20;;;;;;5055718;28;19915;-78
2021/06/10 13:29:06;;;;;;;;;;;29.30;90.70;;;;;;5062935;28;19999;-79
2021/06/10 13:31:47;;;;;;;;;;;28.50;91.10;;;;;;5060965;28;20174;-80
2021/06/10 13:34:18;;;;;;;;;;;27.60;92.00;;;;;;5061828;28;19905;-79
2021/06/10 13:39:22;;;;;;;;;;;28.40;91.30;;;;;;5056068;28;19904;-81
2021/06/10 13:41:47;;;;;;;;;;;29.20;85.80;;;;;;5055312;28;20374;-81
2021/06/10 13:44:13;;;;;;;;;;;29.60;84.40;;;;;;5055321;28;19908;-82
2021/06/10 13:46:39;;;;;;;;;;;30.10;89.00;;;;;;5055165;28;19905;-80
2021/06/10 13:49:04;;;;;;;;;;;30.10;83.50;;;;;;5055232;28;19995;-81
2021/06/10 13:51:30;;;;;;;;;;;30.10;79.90;;;;;;5053427;28;20348;-81
2021/06/10 13:53:55;;;;;;;;;;;30.00;84.50;;;;;;5054119;28;20007;-82